Accueil
METAR-TAF:

METAR-TAF

Aéroports :

Plzeň, République Tchèque

latitude: 49-40-31N, longitude: 13-16-29E, altitude: 362 m

Observation

Le bulletin a été fait il y a 59 minutes, à 10:00 UTC
Vent 10 kt de ouest, variant entre ouest/sud-ouest et nord/nord-ouest
Température 24°C
Humidité 57%
Pression 1018 hPa
Visibilité 10 km ou plus
Nuages fragmentés à une hauteur de 5100 ft

METAR: LKLN 121000Z AUTO 28010KT 250V330 9999 BKN051 24/15 Q1018

Heure: 12:59 (10:59 UTC)


TAF: absent

Observations et prévisions météorologiques de plus de 4000 aéroports (messages METAR et TAF).

Les stations disponibles sont représentées par des disques jaunes et rouges sur la carte.

Passer la souris dessus pour voir le nom de la station.

Cliquer dessus pour voir les observations et prévisions météorologiques.

Pour changer de carte: cliquez sur les boutons verts avec une croix noire pour zoomer, sur le bouton vert avec un tiret pour effectuer un zoom arrière, ou sur les flèches vertes pour les cartes adjacentes.


METAR-TAF: